sensor_id;sensor_type;location;lat;lon;timestamp;P1;durP1;ratioP1;P2;durP2;ratioP2
31132;SDS011;17779;50.942;4.026;2023-04-03T00:03:38;25.45;;;16.52;;
31132;SDS011;17779;50.942;4.026;2023-04-03T00:06:04;32.15;;;17.80;;
31132;SDS011;17779;50.942;4.026;2023-04-03T00:08:31;30.40;;;17.88;;
31132;SDS011;17779;50.942;4.026;2023-04-03T00:10:57;33.47;;;19.70;;
31132;SDS011;17779;50.942;4.026;2023-04-03T00:15:51;34.90;;;19.67;;
31132;SDS011;17779;50.942;4.026;2023-04-03T00:18:17;30.33;;;19.42;;
31132;SDS011;17779;50.942;4.026;2023-04-03T00:20:43;32.33;;;19.73;;
31132;SDS011;17779;50.942;4.026;2023-04-03T00:23:09;30.00;;;19.85;;
31132;SDS011;17779;50.942;4.026;2023-04-03T00:28:01;28.20;;;17.75;;
31132;SDS011;17779;50.942;4.026;2023-04-03T00:30:27;28.52;;;17.00;;
31132;SDS011;17779;50.942;4.026;2023-04-03T00:32:53;28.65;;;16.90;;
31132;SDS011;17779;50.942;4.026;2023-04-03T00:35:20;27.02;;;16.58;;
31132;SDS011;17779;50.942;4.026;2023-04-03T00:37:47;26.33;;;16.65;;
31132;SDS011;17779;50.942;4.026;2023-04-03T00:40:14;27.73;;;15.13;;
31132;SDS011;17779;50.942;4.026;2023-04-03T00:42:41;23.77;;;15.85;;
31132;SDS011;17779;50.942;4.026;2023-04-03T00:47:48;25.75;;;16.35;;
31132;SDS011;17779;50.942;4.026;2023-04-03T00:52:40;36.20;;;17.02;;
31132;SDS011;17779;50.942;4.026;2023-04-03T00:55:06;33.08;;;17.70;;
31132;SDS011;17779;50.942;4.026;2023-04-03T00:57:34;29.98;;;16.60;;
31132;SDS011;17779;50.942;4.026;2023-04-03T01:02:29;26.58;;;16.25;;
31132;SDS011;17779;50.942;4.026;2023-04-03T01:04:55;27.73;;;16.67;;
31132;SDS011;17779;50.942;4.026;2023-04-03T01:07:22;25.33;;;15.82;;
31132;SDS011;17779;50.942;4.026;2023-04-03T01:09:52;24.65;;;16.05;;
31132;SDS011;17779;50.942;4.026;2023-04-03T01:12:29;26.08;;;16.48;;
31132;SDS011;17779;50.942;4.026;2023-04-03T01:14:58;29.55;;;17.80;;
31132;SDS011;17779;50.942;4.026;2023-04-03T01:17:26;26.42;;;16.58;;
31132;SDS011;17779;50.942;4.026;2023-04-03T01:20:15;31.17;;;17.45;;
31132;SDS011;17779;50.942;4.026;2023-04-03T01:25:37;28.17;;;16.35;;
31132;SDS011;17779;50.942;4.026;2023-04-03T01:28:05;33.33;;;17.63;;
31132;SDS011;17779;50.942;4.026;2023-04-03T01:30:34;27.40;;;16.67;;
31132;SDS011;17779;50.942;4.026;2023-04-03T01:33:06;28.23;;;17.25;;
31132;SDS011;17779;50.942;4.026;2023-04-03T01:35:32;28.23;;;17.17;;
31132;SDS011;17779;50.942;4.026;2023-04-03T01:37:58;30.98;;;17.70;;
31132;SDS011;17779;50.942;4.026;2023-04-03T01:40:23;31.13;;;17.13;;
31132;SDS011;17779;50.942;4.026;2023-04-03T01:42:50;32.25;;;17.13;;
31132;SDS011;17779;50.942;4.026;2023-04-03T01:45:16;32.53;;;17.05;;
31132;SDS011;17779;50.942;4.026;2023-04-03T01:47:42;29.30;;;17.83;;
31132;SDS011;17779;50.942;4.026;2023-04-03T01:50:08;32.13;;;17.52;;
31132;SDS011;17779;50.942;4.026;2023-04-03T01:52:34;27.67;;;16.73;;
31132;SDS011;17779;50.942;4.026;2023-04-03T01:55:00;27.52;;;15.68;;
31132;SDS011;17779;50.942;4.026;2023-04-03T01:57:25;26.13;;;15.50;;
31132;SDS011;17779;50.942;4.026;2023-04-03T01:59:51;25.20;;;15.77;;
31132;SDS011;17779;50.942;4.026;2023-04-03T02:02:17;31.15;;;15.40;;
31132;SDS011;17779;50.942;4.026;2023-04-03T02:04:44;24.98;;;14.82;;
31132;SDS011;17779;50.942;4.026;2023-04-03T02:07:10;26.58;;;15.07;;
31132;SDS011;17779;50.942;4.026;2023-04-03T02:09:36;23.73;;;14.90;;
31132;SDS011;17779;50.942;4.026;2023-04-03T02:12:01;24.33;;;14.63;;
31132;SDS011;17779;50.942;4.026;2023-04-03T02:14:27;25.20;;;15.52;;
31132;SDS011;17779;50.942;4.026;2023-04-03T02:16:53;32.30;;;15.70;;
31132;SDS011;17779;50.942;4.026;2023-04-03T02:19:18;26.88;;;14.98;;
31132;SDS011;17779;50.942;4.026;2023-04-03T02:21:44;27.02;;;15.20;;
31132;SDS011;17779;50.942;4.026;2023-04-03T02:24:10;23.50;;;14.88;;
31132;SDS011;17779;50.942;4.026;2023-04-03T02:26:36;24.45;;;14.10;;
31132;SDS011;17779;50.942;4.026;2023-04-03T02:29:02;25.30;;;14.68;;
31132;SDS011;17779;50.942;4.026;2023-04-03T02:33:53;21.45;;;13.73;;
31132;SDS011;17779;50.942;4.026;2023-04-03T02:36:19;21.13;;;13.85;;
31132;SDS011;17779;50.942;4.026;2023-04-03T02:38:45;25.80;;;13.43;;
31132;SDS011;17779;50.942;4.026;2023-04-03T02:41:11;26.20;;;13.35;;
31132;SDS011;17779;50.942;4.026;2023-04-03T02:43:37;27.55;;;13.05;;
31132;SDS011;17779;50.942;4.026;2023-04-03T02:46:03;22.90;;;13.50;;
31132;SDS011;17779;50.942;4.026;2023-04-03T02:48:30;19.17;;;12.02;;
31132;SDS011;17779;50.942;4.026;2023-04-03T02:50:56;26.92;;;12.43;;
31132;SDS011;17779;50.942;4.026;2023-04-03T02:53:22;19.60;;;11.05;;
31132;SDS011;17779;50.942;4.026;2023-04-03T02:55:48;21.23;;;11.13;;
31132;SDS011;17779;50.942;4.026;2023-04-03T02:58:14;26.52;;;11.20;;
31132;SDS011;17779;50.942;4.026;2023-04-03T03:00:39;20.02;;;10.73;;
31132;SDS011;17779;50.942;4.026;2023-04-03T03:03:06;16.50;;;9.55;;
31132;SDS011;17779;50.942;4.026;2023-04-03T03:05:31;15.20;;;10.30;;
31132;SDS011;17779;50.942;4.026;2023-04-03T03:07:57;19.52;;;10.93;;
31132;SDS011;17779;50.942;4.026;2023-04-03T03:10:23;18.05;;;9.40;;
31132;SDS011;17779;50.942;4.026;2023-04-03T03:12:49;16.75;;;10.48;;
31132;SDS011;17779;50.942;4.026;2023-04-03T03:15:15;25.02;;;10.63;;
31132;SDS011;17779;50.942;4.026;2023-04-03T03:17:42;18.75;;;9.88;;
31132;SDS011;17779;50.942;4.026;2023-04-03T03:20:08;19.25;;;10.70;;
31132;SDS011;17779;50.942;4.026;2023-04-03T03:22:35;19.10;;;9.98;;
31132;SDS011;17779;50.942;4.026;2023-04-03T03:25:01;21.67;;;10.88;;
31132;SDS011;17779;50.942;4.026;2023-04-03T03:27:28;17.52;;;10.05;;
31132;SDS011;17779;50.942;4.026;2023-04-03T03:29:53;21.23;;;9.95;;
31132;SDS011;17779;50.942;4.026;2023-04-03T03:32:19;18.83;;;9.90;;
31132;SDS011;17779;50.942;4.026;2023-04-03T03:34:45;18.95;;;10.60;;
31132;SDS011;17779;50.942;4.026;2023-04-03T03:37:11;22.10;;;10.48;;
31132;SDS011;17779;50.942;4.026;2023-04-03T03:39:37;16.65;;;10.25;;
31132;SDS011;17779;50.942;4.026;2023-04-03T03:42:02;18.65;;;10.95;;
31132;SDS011;17779;50.942;4.026;2023-04-03T03:44:28;16.83;;;10.25;;
31132;SDS011;17779;50.942;4.026;2023-04-03T03:46:54;21.08;;;11.52;;
31132;SDS011;17779;50.942;4.026;2023-04-03T03:49:21;19.85;;;11.10;;
31132;SDS011;17779;50.942;4.026;2023-04-03T03:51:46;19.75;;;10.85;;
31132;SDS011;17779;50.942;4.026;2023-04-03T03:54:12;21.77;;;12.18;;
31132;SDS011;17779;50.942;4.026;2023-04-03T03:59:04;20.02;;;11.10;;
31132;SDS011;17779;50.942;4.026;2023-04-03T04:01:31;15.90;;;10.63;;
31132;SDS011;17779;50.942;4.026;2023-04-03T04:06:22;21.95;;;10.65;;
31132;SDS011;17779;50.942;4.026;2023-04-03T04:08:48;19.45;;;10.70;;
31132;SDS011;17779;50.942;4.026;2023-04-03T04:11:14;18.35;;;10.85;;
31132;SDS011;17779;50.942;4.026;2023-04-03T04:13:40;24.73;;;11.30;;
31132;SDS011;17779;50.942;4.026;2023-04-03T04:16:06;20.33;;;11.05;;
31132;SDS011;17779;50.942;4.026;2023-04-03T04:18:32;22.17;;;12.40;;
31132;SDS011;17779;50.942;4.026;2023-04-03T04:23:24;21.15;;;11.02;;
31132;SDS011;17779;50.942;4.026;2023-04-03T04:25:51;22.90;;;11.48;;
31132;SDS011;17779;50.942;4.026;2023-04-03T04:28:16;17.67;;;10.48;;
31132;SDS011;17779;50.942;4.026;2023-04-03T04:30:42;23.13;;;12.38;;
31132;SDS011;17779;50.942;4.026;2023-04-03T04:33:08;16.85;;;11.40;;
31132;SDS011;17779;50.942;4.026;2023-04-03T04:35:34;18.92;;;11.70;;
31132;SDS011;17779;50.942;4.026;2023-04-03T04:38:01;21.05;;;11.57;;
31132;SDS011;17779;50.942;4.026;2023-04-03T04:40:27;21.27;;;11.82;;
31132;SDS011;17779;50.942;4.026;2023-04-03T04:45:19;22.23;;;12.15;;
31132;SDS011;17779;50.942;4.026;2023-04-03T04:50:12;25.48;;;12.23;;
31132;SDS011;17779;50.942;4.026;2023-04-03T04:52:37;22.65;;;12.57;;
31132;SDS011;17779;50.942;4.026;2023-04-03T04:55:03;25.15;;;14.57;;
31132;SDS011;17779;50.942;4.026;2023-04-03T04:57:30;22.15;;;12.27;;
31132;SDS011;17779;50.942;4.026;2023-04-03T04:59:56;25.80;;;11.95;;
31132;SDS011;17779;50.942;4.026;2023-04-03T05:02:21;19.83;;;12.07;;
31132;SDS011;17779;50.942;4.026;2023-04-03T05:04:47;25.30;;;13.18;;
31132;SDS011;17779;50.942;4.026;2023-04-03T05:07:15;28.27;;;13.50;;
31132;SDS011;17779;50.942;4.026;2023-04-03T05:09:42;20.88;;;12.55;;
31132;SDS011;17779;50.942;4.026;2023-04-03T05:12:08;21.48;;;12.48;;
31132;SDS011;17779;50.942;4.026;2023-04-03T05:14:34;24.45;;;13.07;;
31132;SDS011;17779;50.942;4.026;2023-04-03T05:17:00;21.55;;;11.63;;
31132;SDS011;17779;50.942;4.026;2023-04-03T05:19:25;26.15;;;13.07;;
31132;SDS011;17779;50.942;4.026;2023-04-03T05:21:51;25.08;;;13.82;;
31132;SDS011;17779;50.942;4.026;2023-04-03T05:24:17;25.48;;;13.23;;
31132;SDS011;17779;50.942;4.026;2023-04-03T05:26:43;22.83;;;13.43;;
31132;SDS011;17779;50.942;4.026;2023-04-03T05:29:09;24.15;;;13.70;;
31132;SDS011;17779;50.942;4.026;2023-04-03T05:31:35;23.83;;;13.13;;
31132;SDS011;17779;50.942;4.026;2023-04-03T05:34:01;24.15;;;12.63;;
31132;SDS011;17779;50.942;4.026;2023-04-03T05:36:27;22.52;;;12.27;;
31132;SDS011;17779;50.942;4.026;2023-04-03T05:38:53;20.10;;;12.23;;
31132;SDS011;17779;50.942;4.026;2023-04-03T05:41:21;23.83;;;12.00;;
31132;SDS011;17779;50.942;4.026;2023-04-03T05:43:47;26.30;;;11.65;;
31132;SDS011;17779;50.942;4.026;2023-04-03T05:46:13;20.45;;;12.27;;
31132;SDS011;17779;50.942;4.026;2023-04-03T05:48:42;18.95;;;10.65;;
31132;SDS011;17779;50.942;4.026;2023-04-03T05:51:13;17.42;;;11.27;;
31132;SDS011;17779;50.942;4.026;2023-04-03T05:53:44;19.38;;;11.48;;
31132;SDS011;17779;50.942;4.026;2023-04-03T05:56:11;24.63;;;11.65;;
31132;SDS011;17779;50.942;4.026;2023-04-03T05:58:37;20.17;;;11.80;;
31132;SDS011;17779;50.942;4.026;2023-04-03T06:01:03;25.58;;;12.63;;
31132;SDS011;17779;50.942;4.026;2023-04-03T06:03:29;22.35;;;12.70;;
31132;SDS011;17779;50.942;4.026;2023-04-03T06:05:55;19.17;;;12.57;;
31132;SDS011;17779;50.942;4.026;2023-04-03T06:08:20;23.42;;;12.90;;
31132;SDS011;17779;50.942;4.026;2023-04-03T06:10:46;20.60;;;11.90;;
31132;SDS011;17779;50.942;4.026;2023-04-03T06:13:13;23.02;;;13.55;;
31132;SDS011;17779;50.942;4.026;2023-04-03T06:15:38;25.65;;;12.43;;
31132;SDS011;17779;50.942;4.026;2023-04-03T06:18:05;21.10;;;11.93;;
31132;SDS011;17779;50.942;4.026;2023-04-03T06:20:31;22.90;;;12.32;;
31132;SDS011;17779;50.942;4.026;2023-04-03T06:22:57;20.23;;;11.45;;
31132;SDS011;17779;50.942;4.026;2023-04-03T06:25:23;24.15;;;11.32;;
31132;SDS011;17779;50.942;4.026;2023-04-03T06:30:15;22.85;;;11.82;;
31132;SDS011;17779;50.942;4.026;2023-04-03T06:32:40;20.98;;;11.88;;
31132;SDS011;17779;50.942;4.026;2023-04-03T06:35:08;19.80;;;12.40;;
31132;SDS011;17779;50.942;4.026;2023-04-03T06:37:34;20.33;;;11.98;;
31132;SDS011;17779;50.942;4.026;2023-04-03T06:40:00;23.90;;;11.77;;
31132;SDS011;17779;50.942;4.026;2023-04-03T06:42:26;25.00;;;11.65;;
31132;SDS011;17779;50.942;4.026;2023-04-03T06:44:54;17.83;;;10.75;;
31132;SDS011;17779;50.942;4.026;2023-04-03T06:47:19;16.08;;;9.90;;
31132;SDS011;17779;50.942;4.026;2023-04-03T06:49:45;17.83;;;9.98;;
31132;SDS011;17779;50.942;4.026;2023-04-03T06:52:14;14.55;;;9.35;;
31132;SDS011;17779;50.942;4.026;2023-04-03T06:54:40;19.00;;;8.63;;
31132;SDS011;17779;50.942;4.026;2023-04-03T06:57:07;14.15;;;10.13;;
31132;SDS011;17779;50.942;4.026;2023-04-03T06:59:35;16.67;;;10.00;;
31132;SDS011;17779;50.942;4.026;2023-04-03T07:02:04;15.05;;;8.63;;
31132;SDS011;17779;50.942;4.026;2023-04-03T07:04:30;18.40;;;8.98;;
31132;SDS011;17779;50.942;4.026;2023-04-03T07:06:58;11.85;;;8.30;;
31132;SDS011;17779;50.942;4.026;2023-04-03T07:09:24;17.88;;;9.27;;
31132;SDS011;17779;50.942;4.026;2023-04-03T07:11:49;18.70;;;9.27;;
31132;SDS011;17779;50.942;4.026;2023-04-03T07:14:20;17.13;;;9.82;;
31132;SDS011;17779;50.942;4.026;2023-04-03T07:16:48;17.23;;;8.55;;
31132;SDS011;17779;50.942;4.026;2023-04-03T07:19:14;19.75;;;9.60;;
31132;SDS011;17779;50.942;4.026;2023-04-03T07:21:40;12.18;;;7.55;;
31132;SDS011;17779;50.942;4.026;2023-04-03T07:24:07;22.67;;;8.75;;
31132;SDS011;17779;50.942;4.026;2023-04-03T07:26:32;15.13;;;7.72;;
31132;SDS011;17779;50.942;4.026;2023-04-03T07:29:01;18.65;;;7.85;;
31132;SDS011;17779;50.942;4.026;2023-04-03T07:31:27;19.95;;;8.60;;
31132;SDS011;17779;50.942;4.026;2023-04-03T07:33:52;14.95;;;7.78;;
31132;SDS011;17779;50.942;4.026;2023-04-03T07:36:21;11.73;;;7.00;;
31132;SDS011;17779;50.942;4.026;2023-04-03T07:38:55;17.58;;;7.20;;
31132;SDS011;17779;50.942;4.026;2023-04-03T07:41:26;15.73;;;6.30;;
31132;SDS011;17779;50.942;4.026;2023-04-03T07:43:53;17.38;;;5.20;;
31132;SDS011;17779;50.942;4.026;2023-04-03T07:46:21;11.90;;;5.53;;
31132;SDS011;17779;50.942;4.026;2023-04-03T07:48:47;12.52;;;5.35;;
31132;SDS011;17779;50.942;4.026;2023-04-03T07:51:13;13.10;;;5.40;;
31132;SDS011;17779;50.942;4.026;2023-04-03T07:53:40;10.82;;;5.00;;
31132;SDS011;17779;50.942;4.026;2023-04-03T07:56:05;8.95;;;5.10;;
31132;SDS011;17779;50.942;4.026;2023-04-03T07:58:31;10.13;;;4.45;;
31132;SDS011;17779;50.942;4.026;2023-04-03T08:03:23;10.90;;;4.63;;
31132;SDS011;17779;50.942;4.026;2023-04-03T08:05:49;12.20;;;4.78;;
31132;SDS011;17779;50.942;4.026;2023-04-03T08:08:17;9.32;;;4.03;;
31132;SDS011;17779;50.942;4.026;2023-04-03T08:10:47;10.27;;;4.78;;
31132;SDS011;17779;50.942;4.026;2023-04-03T08:13:17;9.25;;;4.47;;
31132;SDS011;17779;50.942;4.026;2023-04-03T08:15:44;10.10;;;4.38;;
31132;SDS011;17779;50.942;4.026;2023-04-03T08:18:10;13.15;;;5.22;;
31132;SDS011;17779;50.942;4.026;2023-04-03T08:20:37;12.23;;;4.10;;
31132;SDS011;17779;50.942;4.026;2023-04-03T08:23:03;10.13;;;4.60;;
31132;SDS011;17779;50.942;4.026;2023-04-03T08:25:29;11.88;;;4.47;;
31132;SDS011;17779;50.942;4.026;2023-04-03T08:27:55;7.70;;;3.80;;
31132;SDS011;17779;50.942;4.026;2023-04-03T08:30:21;9.70;;;3.65;;
31132;SDS011;17779;50.942;4.026;2023-04-03T08:32:47;9.60;;;4.90;;
31132;SDS011;17779;50.942;4.026;2023-04-03T08:35:13;8.85;;;4.13;;
31132;SDS011;17779;50.942;4.026;2023-04-03T08:37:39;11.45;;;3.42;;
31132;SDS011;17779;50.942;4.026;2023-04-03T08:50:41;8.15;;;3.00;;
31132;SDS011;17779;50.942;4.026;2023-04-03T08:53:17;7.63;;;3.08;;
31132;SDS011;17779;50.942;4.026;2023-04-03T08:55:50;9.65;;;3.95;;
31132;SDS011;17779;50.942;4.026;2023-04-03T08:58:19;7.75;;;3.63;;
31132;SDS011;17779;50.942;4.026;2023-04-03T09:03:36;9.40;;;3.83;;
31132;SDS011;17779;50.942;4.026;2023-04-03T09:08:43;8.45;;;3.47;;
31132;SDS011;17779;50.942;4.026;2023-04-03T09:17:21;7.35;;;3.67;;
31132;SDS011;17779;50.942;4.026;2023-04-03T09:20:57;8.52;;;3.30;;
31132;SDS011;17779;50.942;4.026;2023-04-03T09:23:08;7.68;;;3.15;;
31132;SDS011;17779;50.942;4.026;2023-04-03T09:25:52;6.72;;;2.75;;
31132;SDS011;17779;50.942;4.026;2023-04-03T09:28:22;9.38;;;3.35;;
31132;SDS011;17779;50.942;4.026;2023-04-03T09:30:48;6.97;;;2.85;;
31132;SDS011;17779;50.942;4.026;2023-04-03T09:33:14;7.82;;;2.60;;
31132;SDS011;17779;50.942;4.026;2023-04-03T09:35:41;8.05;;;3.17;;
31132;SDS011;17779;50.942;4.026;2023-04-03T09:40:37;10.40;;;2.65;;
31132;SDS011;17779;50.942;4.026;2023-04-03T09:45:47;7.63;;;2.65;;
31132;SDS011;17779;50.942;4.026;2023-04-03T09:48:15;8.68;;;2.67;;
31132;SDS011;17779;50.942;4.026;2023-04-03T09:50:53;9.68;;;2.40;;
31132;SDS011;17779;50.942;4.026;2023-04-03T09:53:26;5.70;;;2.05;;
31132;SDS011;17779;50.942;4.026;2023-04-03T09:55:55;11.77;;;3.20;;
31132;SDS011;17779;50.942;4.026;2023-04-03T10:00:58;6.65;;;2.47;;
31132;SDS011;17779;50.942;4.026;2023-04-03T10:03:30;5.85;;;2.30;;
31132;SDS011;17779;50.942;4.026;2023-04-03T10:05:58;8.27;;;3.00;;
31132;SDS011;17779;50.942;4.026;2023-04-03T10:08:25;6.75;;;2.22;;
31132;SDS011;17779;50.942;4.026;2023-04-03T10:11:10;6.00;;;2.40;;
31132;SDS011;17779;50.942;4.026;2023-04-03T10:13:49;7.00;;;2.53;;
31132;SDS011;17779;50.942;4.026;2023-04-03T10:16:41;10.82;;;2.72;;
31132;SDS011;17779;50.942;4.026;2023-04-03T10:19:22;5.68;;;2.33;;
31132;SDS011;17779;50.942;4.026;2023-04-03T10:22:16;6.60;;;2.10;;
31132;SDS011;17779;50.942;4.026;2023-04-03T10:30:33;6.53;;;1.92;;
31132;SDS011;17779;50.942;4.026;2023-04-03T10:36:10;7.38;;;2.47;;
31132;SDS011;17779;50.942;4.026;2023-04-03T10:39:04;7.45;;;2.50;;
31132;SDS011;17779;50.942;4.026;2023-04-03T10:42:08;4.85;;;2.03;;
31132;SDS011;17779;50.942;4.026;2023-04-03T10:52:52;4.47;;;1.85;;
31132;SDS011;17779;50.942;4.026;2023-04-03T10:55:35;5.80;;;2.05;;
31132;SDS011;17779;50.942;4.026;2023-04-03T10:58:08;7.70;;;2.30;;
31132;SDS011;17779;50.942;4.026;2023-04-03T11:01:00;6.60;;;2.13;;
31132;SDS011;17779;50.942;4.026;2023-04-03T11:03:38;4.68;;;1.85;;
31132;SDS011;17779;50.942;4.026;2023-04-03T11:06:12;5.32;;;2.08;;
31132;SDS011;17779;50.942;4.026;2023-04-03T11:08:45;6.40;;;2.17;;
31132;SDS011;17779;50.942;4.026;2023-04-03T11:11:26;7.40;;;1.98;;
31132;SDS011;17779;50.942;4.026;2023-04-03T11:14:40;5.07;;;1.73;;
31132;SDS011;17779;50.942;4.026;2023-04-03T11:17:39;6.95;;;2.30;;
31132;SDS011;17779;50.942;4.026;2023-04-03T11:25:24;4.93;;;1.60;;
31132;SDS011;17779;50.942;4.026;2023-04-03T11:27:58;5.35;;;2.00;;
31132;SDS011;17779;50.942;4.026;2023-04-03T11:30:28;3.97;;;1.65;;
31132;SDS011;17779;50.942;4.026;2023-04-03T11:33:12;4.55;;;1.90;;
31132;SDS011;17779;50.942;4.026;2023-04-03T11:35:56;4.78;;;2.03;;
31132;SDS011;17779;50.942;4.026;2023-04-03T11:38:33;4.30;;;1.83;;
31132;SDS011;17779;50.942;4.026;2023-04-03T11:41:02;4.57;;;1.85;;
31132;SDS011;17779;50.942;4.026;2023-04-03T11:43:32;5.53;;;2.50;;
31132;SDS011;17779;50.942;4.026;2023-04-03T11:46:07;9.00;;;2.20;;
31132;SDS011;17779;50.942;4.026;2023-04-03T11:51:01;4.90;;;1.80;;
31132;SDS011;17779;50.942;4.026;2023-04-03T11:53:45;5.35;;;1.80;;
31132;SDS011;17779;50.942;4.026;2023-04-03T12:01:43;7.32;;;2.25;;
31132;SDS011;17779;50.942;4.026;2023-04-03T12:04:12;5.22;;;2.00;;
31132;SDS011;17779;50.942;4.026;2023-04-03T12:11:48;7.32;;;1.90;;
31132;SDS011;17779;50.942;4.026;2023-04-03T12:14:15;4.78;;;1.90;;
31132;SDS011;17779;50.942;4.026;2023-04-03T12:16:42;7.13;;;2.05;;
31132;SDS011;17779;50.942;4.026;2023-04-03T12:26:43;4.95;;;2.03;;
31132;SDS011;17779;50.942;4.026;2023-04-03T12:34:26;6.25;;;1.73;;
31132;SDS011;17779;50.942;4.026;2023-04-03T12:37:23;3.75;;;1.38;;
31132;SDS011;17779;50.942;4.026;2023-04-03T12:48:33;5.72;;;1.88;;
31132;SDS011;17779;50.942;4.026;2023-04-03T12:51:19;5.32;;;1.67;;
31132;SDS011;17779;50.942;4.026;2023-04-03T12:54:03;5.68;;;2.05;;
31132;SDS011;17779;50.942;4.026;2023-04-03T12:56:38;3.90;;;1.70;;
31132;SDS011;17779;50.942;4.026;2023-04-03T12:59:21;3.15;;;1.55;;
31132;SDS011;17779;50.942;4.026;2023-04-03T13:01:55;8.88;;;1.60;;
31132;SDS011;17779;50.942;4.026;2023-04-03T13:04:30;3.20;;;1.50;;
31132;SDS011;17779;50.942;4.026;2023-04-03T13:06:57;5.35;;;1.95;;
31132;SDS011;17779;50.942;4.026;2023-04-03T13:09:29;3.65;;;1.73;;
31132;SDS011;17779;50.942;4.026;2023-04-03T13:11:57;5.78;;;1.98;;
31132;SDS011;17779;50.942;4.026;2023-04-03T13:14:39;6.53;;;1.55;;
31132;SDS011;17779;50.942;4.026;2023-04-03T13:19:39;4.43;;;1.40;;
31132;SDS011;17779;50.942;4.026;2023-04-03T13:22:54;7.30;;;2.10;;
31132;SDS011;17779;50.942;4.026;2023-04-03T13:25:08;5.10;;;1.75;;
31132;SDS011;17779;50.942;4.026;2023-04-03T13:27:38;4.47;;;1.77;;
31132;SDS011;17779;50.942;4.026;2023-04-03T13:30:17;5.75;;;1.58;;
31132;SDS011;17779;50.942;4.026;2023-04-03T13:32:59;4.00;;;1.50;;
31132;SDS011;17779;50.942;4.026;2023-04-03T13:35:32;4.15;;;1.40;;
31132;SDS011;17779;50.942;4.026;2023-04-03T13:38:03;7.10;;;1.77;;
31132;SDS011;17779;50.942;4.026;2023-04-03T13:40:33;9.10;;;1.83;;
31132;SDS011;17779;50.942;4.026;2023-04-03T13:43:22;2.38;;;0.98;;
31132;SDS011;17779;50.942;4.026;2023-04-03T13:46:32;4.47;;;1.50;;
31132;SDS011;17779;50.942;4.026;2023-04-03T13:48:43;6.90;;;1.50;;
31132;SDS011;17779;50.942;4.026;2023-04-03T13:56:16;4.50;;;1.92;;
31132;SDS011;17779;50.942;4.026;2023-04-03T14:01:43;6.90;;;1.70;;
31132;SDS011;17779;50.942;4.026;2023-04-03T14:04:14;4.60;;;2.05;;
31132;SDS011;17779;50.942;4.026;2023-04-03T14:06:43;6.60;;;2.42;;
31132;SDS011;17779;50.942;4.026;2023-04-03T14:09:09;6.75;;;1.77;;
31132;SDS011;17779;50.942;4.026;2023-04-03T14:11:35;4.38;;;1.60;;
31132;SDS011;17779;50.942;4.026;2023-04-03T14:14:02;6.00;;;1.80;;
31132;SDS011;17779;50.942;4.026;2023-04-03T14:16:37;6.03;;;1.73;;
31132;SDS011;17779;50.942;4.026;2023-04-03T14:19:05;5.82;;;1.83;;
31132;SDS011;17779;50.942;4.026;2023-04-03T14:21:31;3.90;;;1.77;;
31132;SDS011;17779;50.942;4.026;2023-04-03T14:23:57;5.70;;;2.00;;
31132;SDS011;17779;50.942;4.026;2023-04-03T14:26:23;9.40;;;2.00;;
31132;SDS011;17779;50.942;4.026;2023-04-03T14:28:52;8.15;;;1.88;;
31132;SDS011;17779;50.942;4.026;2023-04-03T14:31:20;9.52;;;1.85;;
31132;SDS011;17779;50.942;4.026;2023-04-03T14:33:47;6.00;;;1.80;;
31132;SDS011;17779;50.942;4.026;2023-04-03T14:36:14;3.17;;;1.60;;
31132;SDS011;17779;50.942;4.026;2023-04-03T14:38:44;6.80;;;2.13;;
31132;SDS011;17779;50.942;4.026;2023-04-03T14:41:12;3.80;;;1.70;;
31132;SDS011;17779;50.942;4.026;2023-04-03T14:43:39;7.13;;;2.30;;
31132;SDS011;17779;50.942;4.026;2023-04-03T14:46:05;5.72;;;2.10;;
31132;SDS011;17779;50.942;4.026;2023-04-03T14:48:39;5.28;;;2.08;;
31132;SDS011;17779;50.942;4.026;2023-04-03T14:51:05;7.20;;;2.33;;
31132;SDS011;17779;50.942;4.026;2023-04-03T14:53:31;13.77;;;2.40;;
31132;SDS011;17779;50.942;4.026;2023-04-03T14:58:23;5.32;;;2.00;;
31132;SDS011;17779;50.942;4.026;2023-04-03T15:00:48;7.13;;;2.45;;
31132;SDS011;17779;50.942;4.026;2023-04-03T15:03:15;6.97;;;2.42;;
31132;SDS011;17779;50.942;4.026;2023-04-03T15:05:46;4.40;;;1.70;;
31132;SDS011;17779;50.942;4.026;2023-04-03T15:08:16;11.95;;;2.40;;
31132;SDS011;17779;50.942;4.026;2023-04-03T15:10:45;5.05;;;2.08;;
31132;SDS011;17779;50.942;4.026;2023-04-03T15:13:11;4.93;;;1.60;;
31132;SDS011;17779;50.942;4.026;2023-04-03T15:15:37;5.97;;;2.22;;
31132;SDS011;17779;50.942;4.026;2023-04-03T15:18:03;6.18;;;2.13;;
31132;SDS011;17779;50.942;4.026;2023-04-03T15:22:58;14.50;;;2.92;;
31132;SDS011;17779;50.942;4.026;2023-04-03T15:25:26;9.27;;;1.90;;
31132;SDS011;17779;50.942;4.026;2023-04-03T15:27:52;4.07;;;1.73;;
31132;SDS011;17779;50.942;4.026;2023-04-03T15:30:19;5.97;;;1.95;;
31132;SDS011;17779;50.942;4.026;2023-04-03T15:35:11;6.95;;;3.03;;
31132;SDS011;17779;50.942;4.026;2023-04-03T15:37:37;2.75;;;1.60;;
31132;SDS011;17779;50.942;4.026;2023-04-03T15:40:03;4.45;;;1.70;;
31132;SDS011;17779;50.942;4.026;2023-04-03T15:42:30;3.83;;;1.80;;
31132;SDS011;17779;50.942;4.026;2023-04-03T15:44:56;3.50;;;1.60;;
31132;SDS011;17779;50.942;4.026;2023-04-03T15:47:21;3.72;;;1.70;;
31132;SDS011;17779;50.942;4.026;2023-04-03T15:49:47;9.77;;;1.67;;
31132;SDS011;17779;50.942;4.026;2023-04-03T15:52:13;6.80;;;1.80;;
31132;SDS011;17779;50.942;4.026;2023-04-03T15:54:39;4.68;;;1.95;;
31132;SDS011;17779;50.942;4.026;2023-04-03T15:57:05;3.90;;;1.80;;
31132;SDS011;17779;50.942;4.026;2023-04-03T15:59:32;3.08;;;1.83;;
31132;SDS011;17779;50.942;4.026;2023-04-03T16:01:57;3.17;;;1.50;;
31132;SDS011;17779;50.942;4.026;2023-04-03T16:04:25;4.82;;;1.73;;
31132;SDS011;17779;50.942;4.026;2023-04-03T16:06:51;6.55;;;1.60;;
31132;SDS011;17779;50.942;4.026;2023-04-03T16:09:17;4.18;;;1.70;;
31132;SDS011;17779;50.942;4.026;2023-04-03T16:11:43;6.38;;;2.03;;
31132;SDS011;17779;50.942;4.026;2023-04-03T16:14:09;4.95;;;1.70;;
31132;SDS011;17779;50.942;4.026;2023-04-03T16:16:34;4.80;;;2.00;;
31132;SDS011;17779;50.942;4.026;2023-04-03T16:19:01;6.13;;;2.30;;
31132;SDS011;17779;50.942;4.026;2023-04-03T16:21:27;4.07;;;1.70;;
31132;SDS011;17779;50.942;4.026;2023-04-03T16:23:53;4.60;;;1.73;;
31132;SDS011;17779;50.942;4.026;2023-04-03T16:26:20;6.88;;;1.73;;
31132;SDS011;17779;50.942;4.026;2023-04-03T16:28:46;3.10;;;1.45;;
31132;SDS011;17779;50.942;4.026;2023-04-03T16:31:12;4.65;;;1.55;;
31132;SDS011;17779;50.942;4.026;2023-04-03T16:33:37;3.97;;;1.80;;
31132;SDS011;17779;50.942;4.026;2023-04-03T16:36:04;5.75;;;2.45;;
31132;SDS011;17779;50.942;4.026;2023-04-03T16:38:30;5.43;;;1.83;;
31132;SDS011;17779;50.942;4.026;2023-04-03T16:40:56;4.05;;;1.63;;
31132;SDS011;17779;50.942;4.026;2023-04-03T16:43:24;5.50;;;2.00;;
31132;SDS011;17779;50.942;4.026;2023-04-03T16:45:50;5.03;;;1.75;;
31132;SDS011;17779;50.942;4.026;2023-04-03T16:48:16;7.88;;;1.80;;
31132;SDS011;17779;50.942;4.026;2023-04-03T16:50:45;8.27;;;1.80;;
31132;SDS011;17779;50.942;4.026;2023-04-03T16:53:13;5.93;;;2.00;;
31132;SDS011;17779;50.942;4.026;2023-04-03T16:55:38;4.82;;;1.67;;
31132;SDS011;17779;50.942;4.026;2023-04-03T16:58:05;5.78;;;2.10;;
31132;SDS011;17779;50.942;4.026;2023-04-03T17:00:31;6.05;;;2.30;;
31132;SDS011;17779;50.942;4.026;2023-04-03T17:05:23;4.22;;;1.75;;
31132;SDS011;17779;50.942;4.026;2023-04-03T17:07:49;4.95;;;2.22;;
31132;SDS011;17779;50.942;4.026;2023-04-03T17:12:41;6.00;;;2.17;;